Time;durP1;ratioP1;P1;durP2;ratioP2;P2;SDS_P1;SDS_P2;PMS_P1;PMS_P2;Temp;Humidity;BMP_temperature;BMP_pressure;BME280_temperature;BME280_humidity;BME280_pressure;Samples;Min_cycle;Max_cycle;Signal;HPM_P1;HPM_P2
2023/10/27 00:00:00;;;;;;;45.27;15.93;;;;;;;19.78;56.42;99272.66;5090104;28;20107;-67
2023/10/27 00:02:25;;;;;;;44.35;15.05;;;;;;;19.42;56.54;99274.34;5092286;28;20173;-67
2023/10/27 00:04:51;;;;;;;49.17;14.50;;;;;;;19.64;56.16;99273.66;5107052;28;20027;-67
2023/10/27 00:07:16;;;;;;;49.23;15.97;;;;;;;19.46;57.53;99270.53;5092202;28;20110;-67
2023/10/27 00:09:41;;;;;;;40.05;15.00;;;;;;;19.39;58.36;99274.59;5076861;28;20081;-67
2023/10/27 00:12:07;;;;;;;37.25;12.90;;;;;;;19.75;56.84;99266.75;5075220;28;20023;-67
2023/10/27 00:14:34;;;;;;;32.03;12.38;;;;;;;19.28;56.77;99264.75;5110945;28;20102;-67
2023/10/27 00:16:59;;;;;;;34.38;12.82;;;;;;;19.89;56.56;99257.81;5092470;28;20521;-67
2023/10/27 00:19:25;;;;;;;34.05;13.00;;;;;;;19.64;56.29;99262.22;5103386;28;20051;-67
2023/10/27 00:21:50;;;;;;;35.83;13.48;;;;;;;20.24;55.12;99251.69;5094453;28;20059;-68
2023/10/27 00:24:15;;;;;;;38.25;12.57;;;;;;;19.99;55.81;99253.53;5083852;28;20497;-67
2023/10/27 00:26:41;;;;;;;36.28;13.63;;;;;;;20.11;55.82;99249.97;5081647;28;20391;-67
2023/10/27 00:29:07;;;;;;;36.65;13.65;;;;;;;19.97;56.23;99255.44;5072565;28;20102;-67
2023/10/27 00:31:32;;;;;;;34.90;14.52;;;;;;;19.83;56.11;99256.44;5090174;28;20047;-67
2023/10/27 00:33:57;;;;;;;33.45;12.50;;;;;;;19.97;56.01;99250.97;5094354;28;20097;-67
2023/10/27 00:36:23;;;;;;;34.05;12.38;;;;;;;19.84;56.63;99244.91;5103711;28;20106;-67
2023/10/27 00:38:50;;;;;;;31.38;12.60;;;;;;;19.64;56.80;99243.66;5074436;28;20059;-67
2023/10/27 00:41:15;;;;;;;29.10;12.02;;;;;;;19.93;55.63;99243.34;5096043;28;20027;-67
2023/10/27 00:43:42;;;;;;;32.30;12.73;;;;;;;19.95;56.40;99226.38;5071729;28;20036;-67
2023/10/27 00:46:08;;;;;;;35.70;12.90;;;;;;;20.21;55.39;99228.88;5102298;28;20031;-67
2023/10/27 00:48:34;;;;;;;30.30;12.57;;;;;;;20.32;55.72;99228.06;5094965;28;20032;-67
2023/10/27 00:51:01;;;;;;;9.70;3.60;;;;;;;20.13;55.30;99228.63;5108864;28;20031;-67
2023/10/27 00:53:27;;;;;;;0.75;0.55;;;;;;;20.06;56.55;99228.22;5103531;28;20026;-67
2023/10/27 00:55:54;;;;;;;0.77;0.60;;;;;;;19.45;57.16;99229.13;5083791;28;20420;-67
2023/10/27 00:58:20;;;;;;;4.07;1.23;;;;;;;19.89;57.12;99226.81;5089759;28;20171;-67
2023/10/27 01:00:46;;;;;;;1.23;0.88;;;;;;;20.38;54.92;99222.28;5085468;28;20098;-67
2023/10/27 01:03:11;;;;;;;0.10;0.03;;;;;;;20.27;56.35;99219.63;5083968;28;20854;-67
2023/10/27 01:05:37;;;;;;;0.10;0.10;;;;;;;20.05;55.88;99221.22;5080651;28;20020;-67
2023/10/27 01:08:02;;;;;;;0.47;0.47;;;;;;;20.00;56.76;99223.38;5113298;28;20614;-67
2023/10/27 01:10:28;;;;;;;0.70;0.60;;;;;;;20.57;55.16;99220.88;5105371;28;20024;-67
2023/10/27 01:12:53;;;;;;;0.00;0.00;;;;;;;20.18;55.66;99215.84;5099097;28;20429;-67
2023/10/27 01:15:19;;;;;;;0.03;0.03;;;;;;;19.94;55.57;99213.25;5092994;28;20016;-67
2023/10/27 01:17:44;;;;;;;0.90;0.70;;;;;;;20.51;55.08;99219.53;5110799;28;20030;-67
2023/10/27 01:20:10;;;;;;;0.10;0.10;;;;;;;20.20;55.94;99218.41;5074993;28;20020;-67
2023/10/27 01:22:46;;;;;;;0.15;0.15;;;;;;;20.41;55.32;99219.38;5076454;28;20081;-67
2023/10/27 01:25:12;;;;;;;3.72;1.75;;;;;;;20.68;55.99;99218.28;5081399;28;20043;-67
2023/10/27 01:27:38;;;;;;;0.45;0.32;;;;;;;20.64;55.68;99214.97;5084718;28;20479;-67
2023/10/27 01:30:04;;;;;;;1.90;0.32;;;;;;;20.34;55.56;99211.06;5079455;28;20027;-67
2023/10/27 01:32:29;;;;;;;0.43;0.43;;;;;;;20.56;55.47;99213.88;5093203;28;20420;-67
2023/10/27 01:34:54;;;;;;;1.48;1.02;;;;;;;20.31;54.90;99216.59;5074391;28;20074;-67
2023/10/27 01:37:20;;;;;;;0.00;0.00;;;;;;;20.61;55.38;99217.03;5103994;28;20039;-67
2023/10/27 01:39:47;;;;;;;0.08;0.08;;;;;;;20.33;55.67;99212.03;5085200;28;20026;-67
2023/10/27 01:42:12;;;;;;;0.47;0.47;;;;;;;20.35;56.75;99206.59;5104404;28;20043;-67
2023/10/27 01:44:38;;;;;;;0.03;0.03;;;;;;;20.64;54.62;99207.00;5094761;28;20077;-66
2023/10/27 01:47:03;;;;;;;1.73;1.10;;;;;;;20.31;55.45;99205.16;5088098;28;20012;-67
2023/10/27 01:49:29;;;;;;;0.32;0.32;;;;;;;20.45;56.44;99198.78;5105895;28;20476;-67
2023/10/27 01:51:54;;;;;;;1.10;1.10;;;;;;;20.42;54.94;99205.16;5080293;28;20028;-66
2023/10/27 01:54:20;;;;;;;1.38;1.27;;;;;;;20.48;54.72;99196.75;5095233;28;20016;-67
2023/10/27 01:56:45;;;;;;;0.10;0.10;;;;;;;20.24;56.59;99201.28;5099309;28;20020;-67
2023/10/27 01:59:10;;;;;;;1.23;1.13;;;;;;;20.62;54.14;99197.47;5078887;28;20084;-67
2023/10/27 02:01:36;;;;;;;0.45;0.25;;;;;;;20.72;54.57;99198.47;5090577;28;20062;-67
2023/10/27 02:04:01;;;;;;;0.25;0.25;;;;;;;20.54;55.51;99194.56;5105389;28;20035;-67
2023/10/27 02:06:28;;;;;;;0.70;0.38;;;;;;;19.83;56.50;99201.63;5087036;28;20122;-67
2023/10/27 02:08:53;;;;;;;0.00;0.00;;;;;;;20.19;55.72;99192.81;5074549;28;20463;-66
2023/10/27 02:11:20;;;;;;;0.00;0.00;;;;;;;20.00;56.02;99194.19;5077711;28;20055;-67
2023/10/27 02:13:46;;;;;;;0.00;0.00;;;;;;;20.23;55.10;99187.16;5075394;28;20390;-66
2023/10/27 02:16:11;;;;;;;0.80;0.80;;;;;;;20.41;54.60;99184.91;5092444;28;20029;-67
2023/10/27 02:18:36;;;;;;;0.00;0.00;;;;;;;20.37;55.86;99182.59;5075583;28;20024;-67
2023/10/27 02:21:02;;;;;;;0.75;0.75;;;;;;;20.23;55.90;99188.97;5092754;28;20034;-67
2023/10/27 02:23:27;;;;;;;0.22;0.22;;;;;;;19.72;56.94;99184.81;5093331;28;20111;-67
2023/10/27 02:25:54;;;;;;;0.00;0.00;;;;;;;19.82;57.18;99186.69;5076224;28;20051;-66
2023/10/27 02:28:20;;;;;;;0.17;0.17;;;;;;;19.59;58.02;99187.50;5086308;28;20028;-66
2023/10/27 02:30:45;;;;;;;1.23;1.08;;;;;;;20.04;56.79;99181.56;5096014;28;20391;-67
2023/10/27 02:33:11;;;;;;;0.00;0.00;;;;;;;20.35;56.62;99177.41;5102001;28;20077;-67
2023/10/27 02:35:37;;;;;;;0.00;0.00;;;;;;;20.33;55.55;99177.53;5087696;28;20035;-67
2023/10/27 02:38:04;;;;;;;2.05;0.70;;;;;;;20.48;55.58;99191.44;5075950;28;20016;-67
2023/10/27 02:40:30;;;;;;;1.17;0.63;;;;;;;20.48;55.44;99186.13;5092561;28;20016;-67
2023/10/27 02:42:55;;;;;;;0.00;0.00;;;;;;;20.80;53.96;99189.91;5083486;28;20092;-67
2023/10/27 02:45:21;;;;;;;0.00;0.00;;;;;;;20.58;57.19;99182.75;5092453;28;20028;-66
2023/10/27 02:47:46;;;;;;;0.35;0.35;;;;;;;20.73;55.44;99184.25;5092661;28;20494;-67
2023/10/27 02:50:12;;;;;;;0.00;0.00;;;;;;;20.42;55.98;99186.59;5095055;28;20319;-67
2023/10/27 02:52:37;;;;;;;0.00;0.00;;;;;;;20.63;54.86;99188.53;5087781;28;20115;-66
2023/10/27 02:55:03;;;;;;;0.00;0.00;;;;;;;20.36;55.72;99188.88;5098656;28;20502;-66
2023/10/27 02:57:28;;;;;;;0.47;0.47;;;;;;;20.46;55.54;99185.41;5073889;28;20349;-67
2023/10/27 02:59:56;;;;;;;0.00;0.00;;;;;;;20.31;54.91;99189.22;5074999;28;20032;-66
2023/10/27 03:02:21;;;;;;;7.28;0.90;;;;;;;20.27;55.65;99182.47;5077092;28;20016;-67
2023/10/27 03:04:47;;;;;;;2.25;0.57;;;;;;;19.98;56.69;99193.50;5098534;28;20027;-66
2023/10/27 03:07:14;;;;;;;0.82;0.80;;;;;;;20.40;55.08;99183.22;5083138;28;20299;-66
2023/10/27 03:09:39;;;;;;;0.55;0.47;;;;;;;20.14;56.28;99180.75;5090144;28;20415;-66
2023/10/27 03:12:05;;;;;;;0.00;0.00;;;;;;;19.82;56.83;99184.03;5093240;28;20059;-66
2023/10/27 03:14:31;;;;;;;0.47;0.47;;;;;;;19.70;57.68;99184.06;5102076;28;20051;-67
2023/10/27 03:16:56;;;;;;;0.00;0.00;;;;;;;20.08;56.68;99173.25;5073746;28;20020;-66
2023/10/27 03:19:21;;;;;;;1.45;0.63;;;;;;;20.45;58.76;99180.22;5073294;28;20028;-66
2023/10/27 03:21:47;;;;;;;0.00;0.00;;;;;;;20.56;58.79;99177.56;5073886;28;20611;-66
2023/10/27 03:24:13;;;;;;;0.00;0.00;;;;;;;20.76;57.66;99178.69;5072093;28;20118;-67
2023/10/27 03:26:38;;;;;;;0.10;0.10;;;;;;;20.70;55.24;99181.81;5079237;28;20027;-66
2023/10/27 03:29:04;;;;;;;0.32;0.15;;;;;;;20.44;54.78;99176.72;5090844;28;20027;-66
2023/10/27 03:31:29;;;;;;;0.55;0.55;;;;;;;20.74;54.32;99170.00;5096476;28;20085;-66
2023/10/27 03:33:55;;;;;;;0.00;0.00;;;;;;;20.48;54.63;99170.22;5082913;28;20028;-66
2023/10/27 03:36:21;;;;;;;0.00;0.00;;;;;;;20.40;55.61;99177.91;5074889;28;20061;-66
2023/10/27 03:38:46;;;;;;;0.20;0.20;;;;;;;20.77;54.72;99169.78;5097505;28;20414;-66
2023/10/27 03:41:12;;;;;;;1.40;0.43;;;;;;;20.71;54.87;99175.53;5081243;28;20093;-66
2023/10/27 03:43:37;;;;;;;0.00;0.00;;;;;;;20.02;56.51;99163.13;5077894;28;20036;-66
2023/10/27 03:46:03;;;;;;;0.20;0.20;;;;;;;20.45;55.49;99170.44;5098410;28;20032;-66
2023/10/27 03:48:29;;;;;;;0.30;0.30;;;;;;;20.44;55.67;99173.19;5095664;28;20499;-66
2023/10/27 03:50:57;;;;;;;0.08;0.08;;;;;;;20.45;55.55;99167.78;5083795;28;20390;-66
2023/10/27 03:53:22;;;;;;;0.98;0.25;;;;;;;20.42;54.77;99164.53;5080793;28;20085;-66
2023/10/27 03:55:54;;;;;;;0.20;0.20;;;;;;;20.60;54.63;99170.22;5090733;28;20032;-67
2023/10/27 03:58:19;;;;;;;0.52;0.52;;;;;;;20.10;57.12;99175.78;5076064;28;20024;-67
2023/10/27 04:00:45;;;;;;;0.00;0.00;;;;;;;19.99;56.54;99168.66;5099475;28;20032;-66
2023/10/27 04:03:11;;;;;;;0.00;0.00;;;;;;;20.35;56.09;99169.47;5072088;28;20485;-66
2023/10/27 04:05:36;;;;;;;0.70;0.70;;;;;;;20.51;55.52;99164.66;5074605;28;20024;-66
2023/10/27 04:08:04;;;;;;;0.30;0.22;;;;;;;20.44;56.59;99160.81;5080326;28;20031;-67
2023/10/27 04:10:31;;;;;;;0.00;0.00;;;;;;;20.55;55.27;99167.06;5073374;28;20085;-66
2023/10/27 04:12:57;;;;;;;0.20;0.15;;;;;;;20.65;54.60;99162.75;5077483;28;20027;-66
2023/10/27 04:15:22;;;;;;;0.10;0.10;;;;;;;20.08;55.89;99162.66;5101654;28;20031;-66
2023/10/27 04:17:48;;;;;;;0.00;0.00;;;;;;;20.38;55.56;99163.91;5072216;28;20028;-66
2023/10/27 04:20:13;;;;;;;0.40;0.15;;;;;;;20.39;55.33;99168.25;5085405;28;20028;-66
2023/10/27 04:22:38;;;;;;;0.10;0.10;;;;;;;20.66;54.41;99161.75;5092271;28;20059;-67
2023/10/27 04:25:05;;;;;;;0.55;0.55;;;;;;;20.36;56.54;99160.56;5092727;28;20032;-67
2023/10/27 04:27:30;;;;;;;1.60;0.43;;;;;;;20.42;55.38;99160.06;5072543;28;20028;-67
2023/10/27 04:29:57;;;;;;;0.03;0.03;;;;;;;20.47;55.26;99163.22;5072588;28;20100;-66
2023/10/27 04:32:23;;;;;;;0.00;0.00;;;;;;;20.42;55.59;99165.38;5088704;28;20055;-68
2023/10/27 04:34:50;;;;;;;0.00;0.00;;;;;;;20.72;54.96;99161.31;5099389;28;20036;-66
2023/10/27 04:37:15;;;;;;;1.55;1.23;;;;;;;20.41;54.81;99158.38;5071497;28;20043;-66
2023/10/27 04:39:41;;;;;;;2.15;0.65;;;;;;;20.46;55.39;99166.81;5072945;28;20032;-66
2023/10/27 04:42:07;;;;;;;0.00;0.00;;;;;;;20.53;55.05;99161.88;5089535;28;20044;-66
2023/10/27 04:44:33;;;;;;;0.50;0.50;;;;;;;20.81;54.50;99162.38;5074271;28;20028;-66
2023/10/27 04:46:58;;;;;;;0.00;0.00;;;;;;;20.64;54.27;99169.00;5093247;28;20383;-67
2023/10/27 04:49:26;;;;;;;2.83;0.80;;;;;;;20.10;55.78;99167.81;5072966;28;20024;-67
2023/10/27 04:51:51;;;;;;;0.93;0.30;;;;;;;20.40;54.61;99167.31;5083514;28;20031;-66
2023/10/27 04:54:17;;;;;;;0.00;0.00;;;;;;;20.57;54.45;99163.34;5084625;28;20027;-67
2023/10/27 04:56:43;;;;;;;0.32;0.32;;;;;;;20.69;55.27;99166.88;5074912;28;20657;-67
2023/10/27 04:59:09;;;;;;;1.00;0.80;;;;;;;20.16;55.49;99168.22;5077635;28;20517;-66
2023/10/27 05:01:34;;;;;;;1.95;1.65;;;;;;;20.31;55.44;99174.16;5092374;28;20024;-67
2023/10/27 05:04:00;;;;;;;0.00;0.00;;;;;;;20.40;55.38;99171.75;5073951;28;20061;-67
2023/10/27 05:06:25;;;;;;;0.00;0.00;;;;;;;20.26;55.57;99170.16;5091539;28;20026;-66
2023/10/27 05:08:51;;;;;;;1.38;0.85;;;;;;;20.77;56.34;99167.13;5087321;28;20031;-66
2023/10/27 05:11:17;;;;;;;0.00;0.00;;;;;;;20.50;54.38;99162.13;5070769;28;20396;-67
2023/10/27 05:13:42;;;;;;;0.93;0.55;;;;;;;20.41;55.64;99163.66;5089997;28;20020;-67
2023/10/27 05:16:08;;;;;;;1.08;0.60;;;;;;;20.56;55.10;99160.81;5072512;28;20107;-66
2023/10/27 05:18:33;;;;;;;0.82;0.82;;;;;;;20.75;55.94;99161.06;5073628;28;20398;-67
2023/10/27 05:20:59;;;;;;;0.00;0.00;;;;;;;20.76;57.23;99168.06;5094406;28;20027;-67
2023/10/27 05:23:24;;;;;;;0.00;0.00;;;;;;;20.74;56.29;99170.00;5085622;28;20016;-67
2023/10/27 05:25:50;;;;;;;0.70;0.70;;;;;;;20.86;55.29;99162.03;5108827;28;20023;-67
2023/10/27 05:28:15;;;;;;;0.88;0.68;;;;;;;20.84;55.44;99164.78;5084113;28;20528;-67
2023/10/27 05:30:43;;;;;;;2.10;1.50;;;;;;;20.67;54.69;99160.78;5078289;28;20020;-66
2023/10/27 05:33:09;;;;;;;0.05;0.05;;;;;;;20.92;57.51;99166.84;5085076;28;20471;-66
2023/10/27 05:35:34;;;;;;;1.00;1.00;;;;;;;21.16;56.07;99169.38;5105858;28;20019;-66
2023/10/27 05:37:59;;;;;;;0.00;0.00;;;;;;;21.01;54.35;99172.28;5081432;28;20035;-67
2023/10/27 05:40:25;;;;;;;0.00;0.00;;;;;;;20.82;57.98;99167.56;5103981;28;20031;-66
2023/10/27 05:42:51;;;;;;;0.25;0.25;;;;;;;20.75;57.50;99170.84;5074627;28;20089;-66
2023/10/27 05:45:16;;;;;;;16.05;0.65;;;;;;;20.56;55.57;99166.09;5097721;28;20059;-67
2023/10/27 05:47:41;;;;;;;0.00;0.00;;;;;;;20.56;55.82;99174.06;5089038;28;20099;-67
2023/10/27 05:50:08;;;;;;;0.10;0.10;;;;;;;20.63;54.52;99169.97;5098525;28;20020;-67
2023/10/27 05:52:34;;;;;;;0.10;0.10;;;;;;;20.46;56.45;99165.97;5075938;28;20081;-66
2023/10/27 05:55:00;;;;;;;16.45;1.95;;;;;;;20.70;55.33;99168.53;5079756;28;20044;-67
2023/10/27 05:57:25;;;;;;;3.20;0.80;;;;;;;20.42;55.81;99170.69;5094424;28;20128;-67
2023/10/27 05:59:50;;;;;;;2.13;0.60;;;;;;;20.42;55.08;99173.31;5088967;28;20028;-67
2023/10/27 06:02:16;;;;;;;0.00;0.00;;;;;;;20.79;54.83;99162.50;5075522;28;20028;-67
2023/10/27 06:04:41;;;;;;;0.25;0.25;;;;;;;20.42;55.28;99168.03;5086521;28;20026;-67
2023/10/27 06:07:07;;;;;;;0.00;0.00;;;;;;;20.80;53.96;99164.22;5076982;28;20672;-66
2023/10/27 06:09:32;;;;;;;0.00;0.00;;;;;;;20.09;57.13;99167.00;5093308;28;20555;-66
2023/10/27 06:11:58;;;;;;;16.05;1.30;;;;;;;19.99;55.90;99161.56;5074396;28;20024;-66
2023/10/27 06:14:23;;;;;;;4.07;0.57;;;;;;;20.46;56.38;99166.81;5074449;28;20020;-67
2023/10/27 06:16:49;;;;;;;0.20;0.20;;;;;;;20.39;55.31;99170.91;5074876;28;20476;-67
2023/10/27 06:19:14;;;;;;;0.77;0.20;;;;;;;20.48;55.22;99164.91;5090785;28;20043;-67
2023/10/27 06:21:40;;;;;;;0.65;0.25;;;;;;;20.10;59.12;99168.69;5074851;28;20020;-67
2023/10/27 06:24:08;;;;;;;0.98;0.50;;;;;;;20.42;56.53;99175.16;5092953;28;20020;-66
2023/10/27 06:26:33;;;;;;;0.38;0.38;;;;;;;20.38;54.85;99169.22;5085912;28;20114;-67
2023/10/27 06:28:59;;;;;;;0.00;0.00;;;;;;;20.49;56.47;99171.88;5073298;28;20107;-67
2023/10/27 06:31:24;;;;;;;0.00;0.00;;;;;;;20.39;55.57;99173.56;5081123;28;20082;-66
2023/10/27 06:33:49;;;;;;;0.03;0.03;;;;;;;20.64;54.78;99176.97;5081624;28;20275;-67
2023/10/27 06:36:15;;;;;;;0.30;0.30;;;;;;;20.53;57.87;99171.66;5078667;28;20027;-67
2023/10/27 06:38:41;;;;;;;0.77;0.77;;;;;;;20.28;56.70;99169.09;5113814;28;20027;-67
2023/10/27 06:41:06;;;;;;;0.47;0.47;;;;;;;20.67;54.66;99172.25;5093689;28;20016;-67
2023/10/27 06:43:32;;;;;;;0.15;0.15;;;;;;;20.51;56.63;99164.66;5079305;28;20573;-67
2023/10/27 06:45:57;;;;;;;0.28;0.13;;;;;;;20.78;55.47;99171.44;5084064;28;20035;-67
2023/10/27 06:48:22;;;;;;;1.02;1.02;;;;;;;20.55;55.71;99177.69;5087351;28;20153;-67
2023/10/27 06:50:48;;;;;;;0.00;0.00;;;;;;;20.59;55.39;99171.16;5087419;28;20028;-67
2023/10/27 06:53:13;;;;;;;0.15;0.15;;;;;;;20.81;54.60;99181.84;5072424;28;20063;-67
2023/10/27 06:55:39;;;;;;;2.13;0.95;;;;;;;20.42;54.91;99178.63;5072260;28;20036;-66
2023/10/27 06:58:04;;;;;;;0.52;0.30;;;;;;;20.49;54.97;99171.03;5070838;28;20028;-67
2023/10/27 07:00:30;;;;;;;0.45;0.45;;;;;;;20.30;55.63;99182.22;5075956;28;20390;-67
2023/10/27 07:02:56;;;;;;;0.00;0.00;;;;;;;20.58;55.38;99185.41;5069538;28;20016;-66
2023/10/27 07:05:23;;;;;;;0.00;0.00;;;;;;;20.56;55.37;99192.66;5069956;28;20028;-67
2023/10/27 07:07:48;;;;;;;0.00;0.00;;;;;;;20.63;55.56;99188.53;5078741;28;20028;-67
2023/10/27 07:10:14;;;;;;;3.15;0.80;;;;;;;20.67;55.54;99190.81;5074150;28;20356;-67
2023/10/27 07:12:39;;;;;;;0.10;0.10;;;;;;;20.67;54.56;99190.00;5085292;28;20036;-67
2023/10/27 07:15:05;;;;;;;0.08;0.08;;;;;;;20.65;55.20;99189.28;5070937;28;20391;-66
2023/10/27 07:17:30;;;;;;;1.77;1.25;;;;;;;20.66;54.75;99188.28;5070351;28;20086;-67
2023/10/27 07:19:56;;;;;;;0.32;0.32;;;;;;;20.84;54.55;99191.34;5070615;28;20028;-67
2023/10/27 07:22:21;;;;;;;0.32;0.32;;;;;;;20.86;54.21;99188.59;5071131;28;20301;-67
2023/10/27 07:24:47;;;;;;;3.30;1.60;;;;;;;20.86;54.27;99193.91;5081719;28;20052;-67
2023/10/27 07:27:13;;;;;;;0.00;0.00;;;;;;;20.86;54.20;99191.25;5074151;28;20581;-67
2023/10/27 07:29:38;;;;;;;0.10;0.10;;;;;;;20.79;54.24;99193.53;5083202;28;20077;-67
2023/10/27 07:32:03;;;;;;;0.13;0.13;;;;;;;20.92;54.07;99204.03;5091033;28;20108;-66
2023/10/27 07:34:29;;;;;;;0.00;0.00;;;;;;;20.76;54.96;99191.97;5072110;28;20023;-66
2023/10/27 07:36:54;;;;;;;0.63;0.47;;;;;;;20.75;55.33;99198.22;5090183;28;20466;-66
2023/10/27 07:39:22;;;;;;;2.90;0.50;;;;;;;20.71;53.90;99203.91;5090356;28;20453;-66
2023/10/27 07:41:50;;;;;;;0.00;0.00;;;;;;;21.04;53.99;99203.06;5090527;28;20074;-67
2023/10/27 07:44:16;;;;;;;0.30;0.28;;;;;;;20.58;55.00;99209.28;5089615;28;20530;-67
2023/10/27 07:46:41;;;;;;;0.10;0.10;;;;;;;20.92;54.21;99206.69;5087808;28;20111;-66
2023/10/27 07:49:06;;;;;;;0.10;0.10;;;;;;;20.89;54.65;99210.41;5091654;28;20035;-66
2023/10/27 07:51:32;;;;;;;1.27;1.17;;;;;;;20.95;54.18;99214.41;5075204;28;20074;-67
2023/10/27 07:53:58;;;;;;;0.00;0.00;;;;;;;20.97;54.97;99212.47;5068662;28;20522;-67
2023/10/27 07:56:23;;;;;;;0.10;0.10;;;;;;;21.13;54.03;99220.91;5069672;28;20020;-66
2023/10/27 07:58:49;;;;;;;0.00;0.00;;;;;;;21.18;53.38;99221.41;5075177;28;20032;-66
2023/10/27 08:01:15;;;;;;;0.00;0.00;;;;;;;20.95;54.28;99217.06;5078912;28;20510;-66
2023/10/27 08:03:41;;;;;;;0.80;0.80;;;;;;;21.15;53.78;99226.94;5085095;28;20044;-67
2023/10/27 08:06:08;;;;;;;0.15;0.15;;;;;;;21.01;54.07;99219.25;5073447;28;20029;-67
2023/10/27 08:08:34;;;;;;;0.35;0.35;;;;;;;21.14;53.67;99221.75;5068186;28;20085;-67
2023/10/27 08:10:59;;;;;;;0.90;0.90;;;;;;;21.13;54.42;99223.59;5075633;28;20027;-66
2023/10/27 08:13:25;;;;;;;0.13;0.13;;;;;;;21.16;54.00;99225.97;5076399;28;20020;-67
2023/10/27 08:15:51;;;;;;;0.40;0.40;;;;;;;21.25;53.75;99226.22;5084768;28;20031;-67
2023/10/27 08:18:16;;;;;;;0.15;0.15;;;;;;;20.92;54.17;99219.97;5090131;28;20110;-67
2023/10/27 08:20:42;;;;;;;0.15;0.15;;;;;;;20.94;53.94;99226.00;5084834;28;20084;-67
2023/10/27 08:23:09;;;;;;;0.00;0.00;;;;;;;21.05;54.43;99219.81;5080954;28;20032;-67
2023/10/27 08:25:34;;;;;;;0.00;0.00;;;;;;;21.12;54.38;99227.19;5075171;28;20028;-67
2023/10/27 08:28:00;;;;;;;5.57;1.65;;;;;;;21.12;54.03;99232.50;5080898;28;20059;-67
2023/10/27 08:30:25;;;;;;;2.72;2.30;;;;;;;21.18;53.45;99234.69;5089270;28;20475;-67
2023/10/27 08:32:51;;;;;;;0.00;0.00;;;;;;;21.14;53.23;99235.91;5084881;28;20021;-67
2023/10/27 08:35:17;;;;;;;1.75;1.25;;;;;;;20.90;53.62;99243.16;5074469;28;20025;-66
2023/10/27 08:37:42;;;;;;;0.00;0.00;;;;;;;21.04;53.82;99240.25;5086127;28;20023;-67
2023/10/27 08:40:12;;;;;;;0.05;0.05;;;;;;;20.87;53.94;99241.56;5088708;28;20030;-67
2023/10/27 08:42:40;;;;;;;0.00;0.00;;;;;;;20.99;54.16;99231.78;5089325;28;20048;-67
2023/10/27 08:45:07;;;;;;;0.00;0.00;;;;;;;21.03;54.17;99233.22;5080686;28;20028;-67
2023/10/27 08:47:34;;;;;;;3.20;1.55;;;;;;;20.64;54.95;99235.38;5069380;28;20027;-67
2023/10/27 08:50:00;;;;;;;3.60;0.52;;;;;;;20.39;55.15;99237.25;5081155;28;20020;-67
2023/10/27 08:52:29;;;;;;;0.00;0.00;;;;;;;20.93;54.34;99232.28;5069606;28;20021;-67
2023/10/27 08:54:55;;;;;;;0.60;0.60;;;;;;;20.84;55.07;99234.69;5069306;28;20024;-67
2023/10/27 08:57:20;;;;;;;0.65;0.65;;;;;;;21.21;53.74;99228.25;5069068;28;20438;-67
2023/10/27 08:59:46;;;;;;;0.00;0.00;;;;;;;20.91;54.44;99234.19;5072487;28;20064;-67
2023/10/27 09:02:12;;;;;;;0.93;0.30;;;;;;;20.76;54.62;99233.56;5089616;28;20734;-67
2023/10/27 09:04:44;;;;;;;0.00;0.00;;;;;;;21.16;54.14;99235.78;5087078;28;20031;-67
2023/10/27 09:07:09;;;;;;;0.00;0.00;;;;;;;21.27;53.51;99235.75;5092237;28;20089;-67
2023/10/27 09:09:35;;;;;;;0.00;0.00;;;;;;;21.21;54.14;99235.41;5094078;28;20555;-67
2023/10/27 09:12:00;;;;;;;0.10;0.10;;;;;;;21.38;53.88;99237.56;5072171;28;20016;-67
2023/10/27 09:14:30;;;;;;;0.00;0.00;;;;;;;21.39;53.16;99238.38;5072463;28;20463;-67
2023/10/27 09:17:07;;;;;;;0.00;0.00;;;;;;;21.31;53.49;99242.50;5072496;28;20361;-67
2023/10/27 09:19:33;;;;;;;0.00;0.00;;;;;;;20.55;54.47;99244.88;5072885;28;20066;-67
2023/10/27 09:21:59;;;;;;;0.00;0.00;;;;;;;20.80;54.61;99241.22;5074646;28;20024;-67
2023/10/27 09:24:29;;;;;;;0.75;0.70;;;;;;;20.20;55.45;99242.28;5073846;28;20028;-67
2023/10/27 09:26:56;;;;;;;0.00;0.00;;;;;;;20.51;55.48;99244.28;5074589;28;20428;-66
2023/10/27 09:29:22;;;;;;;0.00;0.00;;;;;;;20.92;54.31;99241.19;5073400;28;20024;-66
2023/10/27 09:31:48;;;;;;;0.00;0.00;;;;;;;21.06;54.26;99237.47;5073525;28;20135;-67
2023/10/27 09:34:17;;;;;;;0.10;0.10;;;;;;;21.15;54.16;99242.88;5073788;28;20032;-67
2023/10/27 09:36:56;;;;;;;0.00;0.00;;;;;;;20.89;54.41;99242.28;5089031;28;20016;-67
2023/10/27 09:39:23;;;;;;;0.28;0.20;;;;;;;21.10;53.90;99250.41;5092732;28;20376;-67
2023/10/27 09:42:02;;;;;;;0.00;0.00;;;;;;;21.23;54.11;99249.41;5075482;28;20115;-66
2023/10/27 09:45:06;;;;;;;0.00;0.00;;;;;;;21.39;53.66;99246.38;5074206;28;20466;-67
2023/10/27 09:47:41;;;;;;;0.00;0.00;;;;;;;21.46;53.73;99250.22;5073003;28;20165;-66
2023/10/27 09:50:12;;;;;;;0.00;0.00;;;;;;;21.55;53.60;99252.16;5072367;28;20041;-67
2023/10/27 09:52:41;;;;;;;0.05;0.05;;;;;;;21.03;53.92;99254.47;5071899;28;20052;-67
2023/10/27 09:55:07;;;;;;;0.00;0.00;;;;;;;21.35;53.66;99249.28;5073193;28;20108;-67
2023/10/27 09:57:34;;;;;;;0.00;0.00;;;;;;;21.36;52.90;99250.09;5093066;28;20415;-66
2023/10/27 10:00:01;;;;;;;0.00;0.00;;;;;;;21.38;53.83;99247.31;5083373;28;20028;-67
2023/10/27 10:02:29;;;;;;;0.00;0.00;;;;;;;21.45;54.09;99249.38;5089529;28;20028;-67
2023/10/27 10:04:54;;;;;;;0.00;0.00;;;;;;;21.25;54.28;99248.31;5090264;28;20024;-67
2023/10/27 10:07:29;;;;;;;0.00;0.00;;;;;;;21.66;53.50;99251.28;5071636;28;20032;-66
2023/10/27 10:09:55;;;;;;;0.00;0.00;;;;;;;21.48;53.04;99254.44;5072168;28;20051;-67
2023/10/27 10:12:20;;;;;;;0.25;0.25;;;;;;;21.74;52.99;99253.34;5074724;28;20133;-67
2023/10/27 10:14:50;;;;;;;0.88;0.35;;;;;;;21.15;54.27;99250.03;5072855;28;20024;-67
2023/10/27 10:17:38;;;;;;;0.00;0.00;;;;;;;21.35;54.10;99248.44;5071290;28;20020;-67
2023/10/27 10:20:05;;;;;;;0.43;0.43;;;;;;;21.46;53.97;99253.72;5071099;28;20023;-67
2023/10/27 10:22:37;;;;;;;0.00;0.00;;;;;;;21.41;54.18;99263.88;5080587;28;20020;-67
2023/10/27 10:25:14;;;;;;;0.32;0.32;;;;;;;21.56;52.93;99263.66;5092001;28;20036;-67
2023/10/27 10:28:08;;;;;;;0.38;0.32;;;;;;;21.41;53.86;99253.25;5092887;28;20140;-66
2023/10/27 10:31:17;;;;;;;0.22;0.22;;;;;;;21.61;53.67;99258.78;5092206;28;20028;-67
2023/10/27 10:33:48;;;;;;;0.00;0.00;;;;;;;21.34;53.51;99257.38;5047539;28;20407;-67
2023/10/27 10:36:22;;;;;;;0.00;0.00;;;;;;;21.35;54.08;99264.38;5087730;28;20025;-67
2023/10/27 10:38:53;;;;;;;0.17;0.17;;;;;;;21.05;53.58;99257.88;5071187;28;20126;-67
2023/10/27 10:41:19;;;;;;;0.30;0.13;;;;;;;21.17;53.75;99261.34;5074515;28;20059;-67
2023/10/27 10:43:45;;;;;;;0.00;0.00;;;;;;;21.25;53.45;99258.09;5081203;28;20080;-68
2023/10/27 10:46:12;;;;;;;0.20;0.20;;;;;;;21.15;53.07;99253.50;5095110;28;20063;-68
2023/10/27 10:48:41;;;;;;;0.00;0.00;;;;;;;21.11;53.94;99256.53;5085311;28;20023;-68
2023/10/27 10:51:13;;;;;;;2.05;1.95;;;;;;;21.16;54.06;99257.03;5073892;28;20058;-67
2023/10/27 10:53:39;;;;;;;0.22;0.22;;;;;;;20.88;54.18;99245.06;5106719;28;20402;-68
2023/10/27 10:56:05;;;;;;;0.00;0.00;;;;;;;20.73;55.20;99253.28;5104811;28;20023;-67
2023/10/27 10:58:32;;;;;;;0.00;0.00;;;;;;;21.19;54.47;99249.63;5075215;28;20020;-68
2023/10/27 11:00:59;;;;;;;0.00;0.00;;;;;;;21.60;53.63;99251.81;5098721;28;20243;-67
2023/10/27 11:03:27;;;;;;;0.50;0.20;;;;;;;21.33;54.21;99242.38;5090903;28;20032;-67
2023/10/27 11:06:00;;;;;;;0.57;0.57;;;;;;;21.65;54.24;99242.47;5094598;28;20048;-68
2023/10/27 11:08:40;;;;;;;0.00;0.00;;;;;;;21.64;53.65;99242.63;5112061;28;20032;-67
2023/10/27 11:11:05;;;;;;;0.00;0.00;;;;;;;21.23;54.81;99244.09;5084195;28;20681;-68
2023/10/27 11:13:33;;;;;;;0.00;0.00;;;;;;;21.13;54.07;99242.19;5101980;28;20053;-67
2023/10/27 11:16:00;;;;;;;0.05;0.05;;;;;;;21.44;53.77;99236.22;5075883;28;20364;-68
2023/10/27 11:18:29;;;;;;;0.00;0.00;;;;;;;21.08;55.02;99244.34;5112158;28;20027;-68
2023/10/27 11:20:55;;;;;;;0.22;0.22;;;;;;;21.41;54.22;99239.97;5107465;28;20056;-68
2023/10/27 11:23:21;;;;;;;0.00;0.00;;;;;;;21.56;53.86;99245.06;5078762;28;20028;-67
2023/10/27 11:25:46;;;;;;;0.00;0.00;;;;;;;21.49;53.43;99239.34;5092782;28;20103;-67
2023/10/27 11:28:29;;;;;;;0.10;0.10;;;;;;;21.44;53.91;99242.34;5110970;28;20542;-68